Airfield :
LOGIN :

Register | Disclaimer

   EN    FR    IT 

 










Legend :    VFR   Marginal VFR   IFR   Intensive IFR   Very Intensive IFR
Visi :
Ceiling :
>= 8 km
>= 3000ft
5 to 8 km
1000 to 3000 ft
1500m to 5 km
500 to 1000 ft
800 to 1500m
200 to 500 ft
< 800m
< 200 ft
Symbols :   Thunderstorms  Fog  Heavy snow  Heavy precipitations  Wind > 20 kt
SIGMETs :     Misc.  Thunderstorms  Icing  Turbulence  Mountain Waves  Volcanic Ashes







- Airport Elevation : 1959 ft
- IATA code : HOQ


EDQM - Hof Plauen

CURRENT METAR :
  • 251420Z 27012KT 9999 BKN021 OVC074 06/00 Q1007

EXPIRED METARs :
  • 251350Z 26014KT 9999 BKN030 OVC068 09/02 Q1006
  • 251320Z 25011KT 9999 FEW029 BKN059 08/02 Q1006
  • 251250Z 33007KT 290V010 9999 SCT031 BKN059 07/01 Q1007
  • 251220Z 26011KT 9999 FEW032 BKN061 09/01 Q1006
  • 251150Z 25014KT 9999 FEW036 OVC057 09/01 Q1006

TAF TAF EDQM
Valid from the 25 at 15:00 until the 26 at 00:00 UTC


251400Z 2515/2524 24012KT 9999 SCT020
BECMG 2515/2517 28005KT
PROB30
TEMPO 2515/2524 RA
No reported NOTAMs for that airfield.
1 SIGMET reported for the München FIR (EDMM) :
 
Embedded thunderstorms
EDMM SIGMET 1 VALID 251256/251500 EDZM
EDMM MUNCHEN FIR EMBD TS OBS S OF N49 AND W OF E011 TOP FL240 STNR WKN=



MET'MAP, your aeronautical weather chart ! - Copyright ORBIFLY December 2007 - Disclaimer

ORBIFLY MET'MAP TEAM :

Programming & Development : Alexandra Zaïnal
Concept & Development : Baudouin d'Aumeries
Co-Development & Prog : Marc-Olivier Méhu
Technical & hardware support : Manuel Goepfert

Contact : metmap@orbifly.com




SOURCES & CREDITS :

   NOAA